sensor_id;sensor_type;location;lat;lon;timestamp;pressure;altitude;pressure_sealevel;temperature
8227;BMP180;4154;48.810;9.012;2023-08-31T00:00:34;96574.00;;;13.80
8227;BMP180;4154;48.810;9.012;2023-08-31T00:03:01;96579.00;;;13.80
8227;BMP180;4154;48.810;9.012;2023-08-31T00:05:27;96572.00;;;13.80
8227;BMP180;4154;48.810;9.012;2023-08-31T00:07:56;96571.00;;;13.80
8227;BMP180;4154;48.810;9.012;2023-08-31T00:10:22;96577.00;;;13.70
8227;BMP180;4154;48.810;9.012;2023-08-31T00:12:48;96580.00;;;13.70
8227;BMP180;4154;48.810;9.012;2023-08-31T00:15:15;96581.00;;;13.70
8227;BMP180;4154;48.810;9.012;2023-08-31T00:17:40;96583.00;;;13.70
8227;BMP180;4154;48.810;9.012;2023-08-31T00:20:07;96579.00;;;13.60
8227;BMP180;4154;48.810;9.012;2023-08-31T00:22:37;96593.00;;;13.70
8227;BMP180;4154;48.810;9.012;2023-08-31T00:25:04;96600.00;;;13.70
8227;BMP180;4154;48.810;9.012;2023-08-31T00:27:34;96593.00;;;13.70
8227;BMP180;4154;48.810;9.012;2023-08-31T00:30:05;96591.00;;;13.60
8227;BMP180;4154;48.810;9.012;2023-08-31T00:32:33;96597.00;;;13.60
8227;BMP180;4154;48.810;9.012;2023-08-31T00:35:00;96605.00;;;13.60
8227;BMP180;4154;48.810;9.012;2023-08-31T00:37:25;96600.00;;;13.60
8227;BMP180;4154;48.810;9.012;2023-08-31T00:39:51;96604.00;;;13.50
8227;BMP180;4154;48.810;9.012;2023-08-31T00:42:18;96600.00;;;13.50
8227;BMP180;4154;48.810;9.012;2023-08-31T00:44:44;96601.00;;;13.50
8227;BMP180;4154;48.810;9.012;2023-08-31T00:47:13;96603.00;;;13.50
8227;BMP180;4154;48.810;9.012;2023-08-31T00:49:40;96595.00;;;13.50
8227;BMP180;4154;48.810;9.012;2023-08-31T00:52:07;96588.00;;;13.40
8227;BMP180;4154;48.810;9.012;2023-08-31T00:54:34;96592.00;;;13.40
8227;BMP180;4154;48.810;9.012;2023-08-31T00:57:00;96588.00;;;13.30
8227;BMP180;4154;48.810;9.012;2023-08-31T00:59:26;96583.00;;;13.30
8227;BMP180;4154;48.810;9.012;2023-08-31T01:02:11;96580.00;;;13.20
8227;BMP180;4154;48.810;9.012;2023-08-31T01:05:08;96584.00;;;13.20
8227;BMP180;4154;48.810;9.012;2023-08-31T01:08:00;96584.00;;;13.20
8227;BMP180;4154;48.810;9.012;2023-08-31T01:10:58;96588.00;;;13.10
8227;BMP180;4154;48.810;9.012;2023-08-31T01:13:30;96590.00;;;13.10
8227;BMP180;4154;48.810;9.012;2023-08-31T01:16:00;96590.00;;;13.10
8227;BMP180;4154;48.810;9.012;2023-08-31T01:18:29;96596.00;;;13.00
8227;BMP180;4154;48.810;9.012;2023-08-31T01:21:27;96592.00;;;13.00
8227;BMP180;4154;48.810;9.012;2023-08-31T01:23:56;96586.00;;;12.90
8227;BMP180;4154;48.810;9.012;2023-08-31T01:26:24;96598.00;;;12.90
8227;BMP180;4154;48.810;9.012;2023-08-31T01:28:51;96597.00;;;12.90
8227;BMP180;4154;48.810;9.012;2023-08-31T01:31:18;96606.00;;;12.90
8227;BMP180;4154;48.810;9.012;2023-08-31T01:33:44;96609.00;;;12.80
8227;BMP180;4154;48.810;9.012;2023-08-31T01:36:21;96616.00;;;12.80
8227;BMP180;4154;48.810;9.012;2023-08-31T01:39:03;96610.00;;;12.80
8227;BMP180;4154;48.810;9.012;2023-08-31T01:41:34;96628.00;;;12.80
8227;BMP180;4154;48.810;9.012;2023-08-31T01:44:01;96626.00;;;12.80
8227;BMP180;4154;48.810;9.012;2023-08-31T01:46:29;96620.00;;;12.80
8227;BMP180;4154;48.810;9.012;2023-08-31T01:48:56;96629.00;;;12.80
8227;BMP180;4154;48.810;9.012;2023-08-31T01:51:21;96627.00;;;12.80
8227;BMP180;4154;48.810;9.012;2023-08-31T01:53:48;96627.00;;;12.80
8227;BMP180;4154;48.810;9.012;2023-08-31T01:56:13;96634.00;;;12.80
8227;BMP180;4154;48.810;9.012;2023-08-31T01:58:39;96624.00;;;12.80
8227;BMP180;4154;48.810;9.012;2023-08-31T02:01:06;96632.00;;;12.80
8227;BMP180;4154;48.810;9.012;2023-08-31T02:03:32;96623.00;;;12.80
8227;BMP180;4154;48.810;9.012;2023-08-31T02:05:57;96628.00;;;12.70
8227;BMP180;4154;48.810;9.012;2023-08-31T02:08:23;96627.00;;;12.80
8227;BMP180;4154;48.810;9.012;2023-08-31T02:10:49;96624.00;;;12.80
8227;BMP180;4154;48.810;9.012;2023-08-31T02:13:15;96627.00;;;12.70
8227;BMP180;4154;48.810;9.012;2023-08-31T02:15:42;96610.00;;;12.70
8227;BMP180;4154;48.810;9.012;2023-08-31T02:18:08;96626.00;;;12.70
8227;BMP180;4154;48.810;9.012;2023-08-31T02:20:34;96619.00;;;12.70
8227;BMP180;4154;48.810;9.012;2023-08-31T02:23:00;96625.00;;;12.70
8227;BMP180;4154;48.810;9.012;2023-08-31T02:25:26;96632.00;;;12.70
8227;BMP180;4154;48.810;9.012;2023-08-31T02:27:54;96628.00;;;12.70
8227;BMP180;4154;48.810;9.012;2023-08-31T02:30:20;96631.00;;;12.70
8227;BMP180;4154;48.810;9.012;2023-08-31T02:32:46;96626.00;;;12.70
8227;BMP180;4154;48.810;9.012;2023-08-31T02:35:12;96624.00;;;12.70
8227;BMP180;4154;48.810;9.012;2023-08-31T02:37:38;96644.00;;;12.70
8227;BMP180;4154;48.810;9.012;2023-08-31T02:40:05;96630.00;;;12.70
8227;BMP180;4154;48.810;9.012;2023-08-31T02:42:31;96645.00;;;12.70
8227;BMP180;4154;48.810;9.012;2023-08-31T02:44:57;96649.00;;;12.80
8227;BMP180;4154;48.810;9.012;2023-08-31T02:47:23;96653.00;;;12.80
8227;BMP180;4154;48.810;9.012;2023-08-31T02:49:49;96653.00;;;12.70
8227;BMP180;4154;48.810;9.012;2023-08-31T02:52:14;96649.00;;;12.80
8227;BMP180;4154;48.810;9.012;2023-08-31T02:54:40;96651.00;;;12.80
8227;BMP180;4154;48.810;9.012;2023-08-31T02:57:06;96642.00;;;12.70
8227;BMP180;4154;48.810;9.012;2023-08-31T02:59:33;96649.00;;;12.80
8227;BMP180;4154;48.810;9.012;2023-08-31T03:02:02;96655.00;;;12.80
8227;BMP180;4154;48.810;9.012;2023-08-31T03:04:28;96650.00;;;12.80
8227;BMP180;4154;48.810;9.012;2023-08-31T03:06:54;96650.00;;;12.80
8227;BMP180;4154;48.810;9.012;2023-08-31T03:09:19;96657.00;;;12.80
8227;BMP180;4154;48.810;9.012;2023-08-31T03:11:46;96655.00;;;12.70
8227;BMP180;4154;48.810;9.012;2023-08-31T03:14:12;96658.00;;;12.70
8227;BMP180;4154;48.810;9.012;2023-08-31T03:16:37;96658.00;;;12.70
8227;BMP180;4154;48.810;9.012;2023-08-31T03:19:03;96653.00;;;12.70
8227;BMP180;4154;48.810;9.012;2023-08-31T03:21:29;96658.00;;;12.70
8227;BMP180;4154;48.810;9.012;2023-08-31T03:23:55;96652.00;;;12.60
8227;BMP180;4154;48.810;9.012;2023-08-31T03:26:21;96660.00;;;12.60
8227;BMP180;4154;48.810;9.012;2023-08-31T03:28:47;96657.00;;;12.60
8227;BMP180;4154;48.810;9.012;2023-08-31T03:31:12;96650.00;;;12.60
8227;BMP180;4154;48.810;9.012;2023-08-31T03:33:38;96659.00;;;12.60
8227;BMP180;4154;48.810;9.012;2023-08-31T03:36:04;96656.00;;;12.50
8227;BMP180;4154;48.810;9.012;2023-08-31T03:38:31;96660.00;;;12.50
8227;BMP180;4154;48.810;9.012;2023-08-31T03:40:58;96657.00;;;12.50
8227;BMP180;4154;48.810;9.012;2023-08-31T03:43:23;96650.00;;;12.50
8227;BMP180;4154;48.810;9.012;2023-08-31T03:45:53;96657.00;;;12.40
8227;BMP180;4154;48.810;9.012;2023-08-31T03:48:21;96669.00;;;12.40
8227;BMP180;4154;48.810;9.012;2023-08-31T03:50:55;96664.00;;;12.40
8227;BMP180;4154;48.810;9.012;2023-08-31T03:53:20;96669.00;;;12.40
8227;BMP180;4154;48.810;9.012;2023-08-31T03:55:46;96671.00;;;12.50
8227;BMP180;4154;48.810;9.012;2023-08-31T03:58:13;96673.00;;;12.50
8227;BMP180;4154;48.810;9.012;2023-08-31T04:00:39;96685.00;;;12.50
8227;BMP180;4154;48.810;9.012;2023-08-31T04:03:05;96689.00;;;12.50
8227;BMP180;4154;48.810;9.012;2023-08-31T04:05:34;96691.00;;;12.50
8227;BMP180;4154;48.810;9.012;2023-08-31T04:08:01;96692.00;;;12.50
8227;BMP180;4154;48.810;9.012;2023-08-31T04:10:30;96686.00;;;12.50
8227;BMP180;4154;48.810;9.012;2023-08-31T04:12:57;96683.00;;;12.50
8227;BMP180;4154;48.810;9.012;2023-08-31T04:15:23;96689.00;;;12.50
8227;BMP180;4154;48.810;9.012;2023-08-31T04:17:49;96683.00;;;12.50
8227;BMP180;4154;48.810;9.012;2023-08-31T04:20:18;96683.00;;;12.50
8227;BMP180;4154;48.810;9.012;2023-08-31T04:22:43;96687.00;;;12.50
8227;BMP180;4154;48.810;9.012;2023-08-31T04:25:09;96698.00;;;12.50
8227;BMP180;4154;48.810;9.012;2023-08-31T04:27:34;96704.00;;;12.50
8227;BMP180;4154;48.810;9.012;2023-08-31T04:30:02;96700.00;;;12.50
8227;BMP180;4154;48.810;9.012;2023-08-31T04:32:28;96698.00;;;12.50
8227;BMP180;4154;48.810;9.012;2023-08-31T04:34:53;96697.00;;;12.50
8227;BMP180;4154;48.810;9.012;2023-08-31T04:37:21;96697.00;;;12.60
8227;BMP180;4154;48.810;9.012;2023-08-31T04:39:46;96699.00;;;12.60
8227;BMP180;4154;48.810;9.012;2023-08-31T04:42:12;96706.00;;;12.60
8227;BMP180;4154;48.810;9.012;2023-08-31T04:44:38;96705.00;;;12.50
8227;BMP180;4154;48.810;9.012;2023-08-31T04:47:03;96703.00;;;12.60
8227;BMP180;4154;48.810;9.012;2023-08-31T04:49:29;96705.00;;;12.60
8227;BMP180;4154;48.810;9.012;2023-08-31T04:51:56;96706.00;;;12.60
8227;BMP180;4154;48.810;9.012;2023-08-31T04:54:21;96711.00;;;12.60
8227;BMP180;4154;48.810;9.012;2023-08-31T04:56:47;96701.00;;;12.60
8227;BMP180;4154;48.810;9.012;2023-08-31T04:59:13;96701.00;;;12.50
8227;BMP180;4154;48.810;9.012;2023-08-31T05:01:38;96713.00;;;12.60
8227;BMP180;4154;48.810;9.012;2023-08-31T05:04:04;96710.00;;;12.50
8227;BMP180;4154;48.810;9.012;2023-08-31T05:06:30;96709.00;;;12.60
8227;BMP180;4154;48.810;9.012;2023-08-31T05:08:55;96714.00;;;12.60
8227;BMP180;4154;48.810;9.012;2023-08-31T05:11:22;96715.00;;;12.50
8227;BMP180;4154;48.810;9.012;2023-08-31T05:13:48;96713.00;;;12.50
8227;BMP180;4154;48.810;9.012;2023-08-31T05:16:14;96727.00;;;12.50
8227;BMP180;4154;48.810;9.012;2023-08-31T05:18:39;96730.00;;;12.50
8227;BMP180;4154;48.810;9.012;2023-08-31T05:21:06;96729.00;;;12.60
8227;BMP180;4154;48.810;9.012;2023-08-31T05:23:32;96736.00;;;12.60
8227;BMP180;4154;48.810;9.012;2023-08-31T05:25:58;96743.00;;;12.60
8227;BMP180;4154;48.810;9.012;2023-08-31T05:28:24;96734.00;;;12.60
8227;BMP180;4154;48.810;9.012;2023-08-31T05:30:51;96755.00;;;12.60
8227;BMP180;4154;48.810;9.012;2023-08-31T05:33:18;96752.00;;;12.70
8227;BMP180;4154;48.810;9.012;2023-08-31T05:35:44;96749.00;;;12.70
8227;BMP180;4154;48.810;9.012;2023-08-31T05:38:10;96752.00;;;12.70
8227;BMP180;4154;48.810;9.012;2023-08-31T05:40:36;96752.00;;;12.70
8227;BMP180;4154;48.810;9.012;2023-08-31T05:43:02;96749.00;;;12.80
8227;BMP180;4154;48.810;9.012;2023-08-31T05:45:33;96759.00;;;12.80
8227;BMP180;4154;48.810;9.012;2023-08-31T05:47:58;96763.00;;;12.80
8227;BMP180;4154;48.810;9.012;2023-08-31T05:50:24;96755.00;;;12.80
8227;BMP180;4154;48.810;9.012;2023-08-31T05:52:50;96759.00;;;12.80
8227;BMP180;4154;48.810;9.012;2023-08-31T05:55:16;96755.00;;;12.80
8227;BMP180;4154;48.810;9.012;2023-08-31T05:57:42;96769.00;;;12.80
8227;BMP180;4154;48.810;9.012;2023-08-31T06:00:08;96763.00;;;12.80
8227;BMP180;4154;48.810;9.012;2023-08-31T06:02:34;96763.00;;;12.80
8227;BMP180;4154;48.810;9.012;2023-08-31T06:05:01;96756.00;;;12.90
8227;BMP180;4154;48.810;9.012;2023-08-31T06:07:27;96768.00;;;12.90
8227;BMP180;4154;48.810;9.012;2023-08-31T06:09:55;96767.00;;;12.90
8227;BMP180;4154;48.810;9.012;2023-08-31T06:12:21;96773.00;;;12.90
8227;BMP180;4154;48.810;9.012;2023-08-31T06:14:47;96771.00;;;12.90
8227;BMP180;4154;48.810;9.012;2023-08-31T06:17:13;96773.00;;;13.00
8227;BMP180;4154;48.810;9.012;2023-08-31T06:19:39;96777.00;;;13.00
8227;BMP180;4154;48.810;9.012;2023-08-31T06:22:05;96775.00;;;13.00
8227;BMP180;4154;48.810;9.012;2023-08-31T06:24:31;96775.00;;;13.00
8227;BMP180;4154;48.810;9.012;2023-08-31T06:26:58;96773.00;;;13.00
8227;BMP180;4154;48.810;9.012;2023-08-31T06:29:24;96769.00;;;13.10
8227;BMP180;4154;48.810;9.012;2023-08-31T06:31:50;96774.00;;;13.10
8227;BMP180;4154;48.810;9.012;2023-08-31T06:34:15;96782.00;;;13.20
8227;BMP180;4154;48.810;9.012;2023-08-31T06:36:41;96781.00;;;13.20
8227;BMP180;4154;48.810;9.012;2023-08-31T06:39:07;96798.00;;;13.20
8227;BMP180;4154;48.810;9.012;2023-08-31T06:41:32;96800.00;;;13.30
8227;BMP180;4154;48.810;9.012;2023-08-31T06:43:59;96806.00;;;13.30
8227;BMP180;4154;48.810;9.012;2023-08-31T06:46:24;96799.00;;;13.40
8227;BMP180;4154;48.810;9.012;2023-08-31T06:48:50;96805.00;;;13.50
8227;BMP180;4154;48.810;9.012;2023-08-31T06:51:16;96813.00;;;13.50
8227;BMP180;4154;48.810;9.012;2023-08-31T06:53:43;96816.00;;;13.60
8227;BMP180;4154;48.810;9.012;2023-08-31T06:56:09;96804.00;;;13.60
8227;BMP180;4154;48.810;9.012;2023-08-31T06:58:35;96797.00;;;13.60
8227;BMP180;4154;48.810;9.012;2023-08-31T07:01:01;96807.00;;;13.60
8227;BMP180;4154;48.810;9.012;2023-08-31T07:03:26;96810.00;;;13.70
8227;BMP180;4154;48.810;9.012;2023-08-31T07:05:52;96801.00;;;13.70
8227;BMP180;4154;48.810;9.012;2023-08-31T07:08:18;96810.00;;;13.70
8227;BMP180;4154;48.810;9.012;2023-08-31T07:10:44;96804.00;;;13.80
8227;BMP180;4154;48.810;9.012;2023-08-31T07:13:10;96809.00;;;13.70
8227;BMP180;4154;48.810;9.012;2023-08-31T07:15:36;96810.00;;;13.80
8227;BMP180;4154;48.810;9.012;2023-08-31T07:18:02;96813.00;;;13.80
8227;BMP180;4154;48.810;9.012;2023-08-31T07:20:28;96808.00;;;13.80
8227;BMP180;4154;48.810;9.012;2023-08-31T07:22:53;96813.00;;;13.80
8227;BMP180;4154;48.810;9.012;2023-08-31T07:25:20;96816.00;;;13.90
8227;BMP180;4154;48.810;9.012;2023-08-31T07:27:45;96823.00;;;13.90
8227;BMP180;4154;48.810;9.012;2023-08-31T07:30:12;96823.00;;;14.00
8227;BMP180;4154;48.810;9.012;2023-08-31T07:32:37;96823.00;;;14.00
8227;BMP180;4154;48.810;9.012;2023-08-31T07:35:03;96827.00;;;14.00
8227;BMP180;4154;48.810;9.012;2023-08-31T07:37:30;96836.00;;;14.00
8227;BMP180;4154;48.810;9.012;2023-08-31T07:39:55;96833.00;;;14.10
8227;BMP180;4154;48.810;9.012;2023-08-31T07:42:21;96834.00;;;14.10
8227;BMP180;4154;48.810;9.012;2023-08-31T07:44:47;96835.00;;;14.10
8227;BMP180;4154;48.810;9.012;2023-08-31T07:47:12;96834.00;;;14.20
8227;BMP180;4154;48.810;9.012;2023-08-31T07:49:38;96830.00;;;14.20
8227;BMP180;4154;48.810;9.012;2023-08-31T07:52:04;96837.00;;;14.20
8227;BMP180;4154;48.810;9.012;2023-08-31T07:54:30;96830.00;;;14.30
8227;BMP180;4154;48.810;9.012;2023-08-31T07:56:56;96836.00;;;14.30
8227;BMP180;4154;48.810;9.012;2023-08-31T07:59:21;96834.00;;;14.40
8227;BMP180;4154;48.810;9.012;2023-08-31T08:01:48;96840.00;;;14.50
8227;BMP180;4154;48.810;9.012;2023-08-31T08:04:14;96840.00;;;14.50
8227;BMP180;4154;48.810;9.012;2023-08-31T08:06:39;96841.00;;;14.50
8227;BMP180;4154;48.810;9.012;2023-08-31T08:09:05;96840.00;;;14.60
8227;BMP180;4154;48.810;9.012;2023-08-31T08:11:34;96838.00;;;14.60
8227;BMP180;4154;48.810;9.012;2023-08-31T08:13:59;96838.00;;;14.70
8227;BMP180;4154;48.810;9.012;2023-08-31T08:16:25;96846.00;;;14.70
8227;BMP180;4154;48.810;9.012;2023-08-31T08:18:51;96849.00;;;14.70
8227;BMP180;4154;48.810;9.012;2023-08-31T08:21:16;96843.00;;;14.80
8227;BMP180;4154;48.810;9.012;2023-08-31T08:23:42;96843.00;;;14.80
8227;BMP180;4154;48.810;9.012;2023-08-31T08:26:07;96848.00;;;14.90
8227;BMP180;4154;48.810;9.012;2023-08-31T08:28:33;96856.00;;;15.00
8227;BMP180;4154;48.810;9.012;2023-08-31T08:31:02;96855.00;;;15.00
8227;BMP180;4154;48.810;9.012;2023-08-31T08:33:29;96855.00;;;15.00
8227;BMP180;4154;48.810;9.012;2023-08-31T08:35:59;96855.00;;;15.10
8227;BMP180;4154;48.810;9.012;2023-08-31T08:38:25;96856.00;;;15.20
8227;BMP180;4154;48.810;9.012;2023-08-31T08:40:51;96851.00;;;15.20
8227;BMP180;4154;48.810;9.012;2023-08-31T08:43:24;96865.00;;;15.20
8227;BMP180;4154;48.810;9.012;2023-08-31T08:45:52;96858.00;;;15.20
8227;BMP180;4154;48.810;9.012;2023-08-31T08:48:20;96861.00;;;15.30
8227;BMP180;4154;48.810;9.012;2023-08-31T08:50:46;96862.00;;;15.30
8227;BMP180;4154;48.810;9.012;2023-08-31T08:53:13;96866.00;;;15.30
8227;BMP180;4154;48.810;9.012;2023-08-31T08:55:41;96867.00;;;15.30
8227;BMP180;4154;48.810;9.012;2023-08-31T08:58:06;96864.00;;;15.30
8227;BMP180;4154;48.810;9.012;2023-08-31T09:00:33;96867.00;;;15.30
8227;BMP180;4154;48.810;9.012;2023-08-31T09:03:01;96861.00;;;15.30
8227;BMP180;4154;48.810;9.012;2023-08-31T09:05:34;96868.00;;;15.40
8227;BMP180;4154;48.810;9.012;2023-08-31T09:08:08;96872.00;;;15.40
8227;BMP180;4154;48.810;9.012;2023-08-31T09:10:44;96880.00;;;15.50
8227;BMP180;4154;48.810;9.012;2023-08-31T09:13:14;96871.00;;;15.50
8227;BMP180;4154;48.810;9.012;2023-08-31T09:15:47;96877.00;;;15.50
8227;BMP180;4154;48.810;9.012;2023-08-31T09:20:53;96882.00;;;15.60
8227;BMP180;4154;48.810;9.012;2023-08-31T09:23:20;96890.00;;;15.60
8227;BMP180;4154;48.810;9.012;2023-08-31T09:25:52;96886.00;;;15.60
8227;BMP180;4154;48.810;9.012;2023-08-31T09:28:26;96883.00;;;15.60
8227;BMP180;4154;48.810;9.012;2023-08-31T09:30:53;96885.00;;;15.70
8227;BMP180;4154;48.810;9.012;2023-08-31T09:33:27;96883.00;;;15.70
8227;BMP180;4154;48.810;9.012;2023-08-31T09:35:57;96883.00;;;15.70
8227;BMP180;4154;48.810;9.012;2023-08-31T09:38:23;96888.00;;;15.70
8227;BMP180;4154;48.810;9.012;2023-08-31T09:40:49;96900.00;;;15.70
8227;BMP180;4154;48.810;9.012;2023-08-31T09:43:23;96896.00;;;15.70
8227;BMP180;4154;48.810;9.012;2023-08-31T09:45:50;96896.00;;;15.70
8227;BMP180;4154;48.810;9.012;2023-08-31T09:48:19;96881.00;;;15.70
8227;BMP180;4154;48.810;9.012;2023-08-31T09:50:45;96889.00;;;15.80
8227;BMP180;4154;48.810;9.012;2023-08-31T09:53:12;96901.00;;;15.90
8227;BMP180;4154;48.810;9.012;2023-08-31T09:55:40;96894.00;;;15.90
8227;BMP180;4154;48.810;9.012;2023-08-31T09:58:07;96895.00;;;16.00
8227;BMP180;4154;48.810;9.012;2023-08-31T10:00:36;96893.00;;;16.00
8227;BMP180;4154;48.810;9.012;2023-08-31T10:03:04;96911.00;;;16.20
8227;BMP180;4154;48.810;9.012;2023-08-31T10:05:31;96900.00;;;16.20
8227;BMP180;4154;48.810;9.012;2023-08-31T10:07:59;96903.00;;;16.30
8227;BMP180;4154;48.810;9.012;2023-08-31T10:10:28;96913.00;;;16.40
8227;BMP180;4154;48.810;9.012;2023-08-31T10:12:55;96906.00;;;16.40
8227;BMP180;4154;48.810;9.012;2023-08-31T10:15:22;96910.00;;;16.50
8227;BMP180;4154;48.810;9.012;2023-08-31T10:17:48;96914.00;;;16.60
8227;BMP180;4154;48.810;9.012;2023-08-31T10:20:16;96913.00;;;16.60
8227;BMP180;4154;48.810;9.012;2023-08-31T10:22:43;96922.00;;;16.70
8227;BMP180;4154;48.810;9.012;2023-08-31T10:25:09;96916.00;;;16.70
8227;BMP180;4154;48.810;9.012;2023-08-31T10:27:42;96920.00;;;16.70
8227;BMP180;4154;48.810;9.012;2023-08-31T10:35:56;96914.00;;;16.70
8227;BMP180;4154;48.810;9.012;2023-08-31T10:38:32;96911.00;;;16.80
8227;BMP180;4154;48.810;9.012;2023-08-31T10:46:26;96915.00;;;16.80
8227;BMP180;4154;48.810;9.012;2023-08-31T10:51:40;96918.00;;;16.80
8227;BMP180;4154;48.810;9.012;2023-08-31T10:54:10;96926.00;;;16.80
8227;BMP180;4154;48.810;9.012;2023-08-31T10:59:49;96937.00;;;16.80
8227;BMP180;4154;48.810;9.012;2023-08-31T11:02:37;96919.00;;;16.90
8227;BMP180;4154;48.810;9.012;2023-08-31T11:05:17;96921.00;;;16.90
8227;BMP180;4154;48.810;9.012;2023-08-31T11:07:45;96919.00;;;16.90
8227;BMP180;4154;48.810;9.012;2023-08-31T11:10:17;96925.00;;;17.00
8227;BMP180;4154;48.810;9.012;2023-08-31T11:12:46;96917.00;;;17.00
8227;BMP180;4154;48.810;9.012;2023-08-31T11:15:18;96913.00;;;16.90
8227;BMP180;4154;48.810;9.012;2023-08-31T11:17:45;96918.00;;;16.90
8227;BMP180;4154;48.810;9.012;2023-08-31T11:20:17;96904.00;;;17.00
8227;BMP180;4154;48.810;9.012;2023-08-31T11:22:46;96917.00;;;17.00
8227;BMP180;4154;48.810;9.012;2023-08-31T11:25:13;96913.00;;;17.10
8227;BMP180;4154;48.810;9.012;2023-08-31T11:27:40;96907.00;;;17.10
8227;BMP180;4154;48.810;9.012;2023-08-31T11:30:17;96919.00;;;17.20
8227;BMP180;4154;48.810;9.012;2023-08-31T11:32:49;96913.00;;;17.20
8227;BMP180;4154;48.810;9.012;2023-08-31T11:35:15;96907.00;;;17.30
8227;BMP180;4154;48.810;9.012;2023-08-31T11:37:44;96907.00;;;17.30
8227;BMP180;4154;48.810;9.012;2023-08-31T11:40:14;96908.00;;;17.30
8227;BMP180;4154;48.810;9.012;2023-08-31T11:42:42;96907.00;;;17.30
8227;BMP180;4154;48.810;9.012;2023-08-31T11:45:11;96901.00;;;17.30
8227;BMP180;4154;48.810;9.012;2023-08-31T11:47:38;96905.00;;;17.30
8227;BMP180;4154;48.810;9.012;2023-08-31T11:50:06;96903.00;;;17.30
8227;BMP180;4154;48.810;9.012;2023-08-31T11:52:32;96904.00;;;17.30
8227;BMP180;4154;48.810;9.012;2023-08-31T11:54:59;96900.00;;;17.30
8227;BMP180;4154;48.810;9.012;2023-08-31T11:57:26;96900.00;;;17.30
8227;BMP180;4154;48.810;9.012;2023-08-31T11:59:55;96904.00;;;17.30
8227;BMP180;4154;48.810;9.012;2023-08-31T12:02:21;96908.00;;;17.30
8227;BMP180;4154;48.810;9.012;2023-08-31T12:04:48;96907.00;;;17.20
8227;BMP180;4154;48.810;9.012;2023-08-31T12:07:18;96903.00;;;17.20
8227;BMP180;4154;48.810;9.012;2023-08-31T12:09:45;96912.00;;;17.30
8227;BMP180;4154;48.810;9.012;2023-08-31T12:12:13;96907.00;;;17.30
8227;BMP180;4154;48.810;9.012;2023-08-31T12:14:39;96913.00;;;17.40
8227;BMP180;4154;48.810;9.012;2023-08-31T12:17:08;96914.00;;;17.60
8227;BMP180;4154;48.810;9.012;2023-08-31T12:19:37;96914.00;;;17.70
8227;BMP180;4154;48.810;9.012;2023-08-31T12:22:05;96907.00;;;17.80
8227;BMP180;4154;48.810;9.012;2023-08-31T12:24:40;96910.00;;;17.90
8227;BMP180;4154;48.810;9.012;2023-08-31T12:27:09;96910.00;;;18.10
8227;BMP180;4154;48.810;9.012;2023-08-31T12:29:35;96901.00;;;18.10
8227;BMP180;4154;48.810;9.012;2023-08-31T12:32:02;96907.00;;;18.10
8227;BMP180;4154;48.810;9.012;2023-08-31T12:34:29;96907.00;;;18.20
8227;BMP180;4154;48.810;9.012;2023-08-31T12:36:56;96898.00;;;18.10
8227;BMP180;4154;48.810;9.012;2023-08-31T12:39:25;96895.00;;;18.10
8227;BMP180;4154;48.810;9.012;2023-08-31T12:41:51;96903.00;;;18.10
8227;BMP180;4154;48.810;9.012;2023-08-31T12:44:16;96911.00;;;18.00
8227;BMP180;4154;48.810;9.012;2023-08-31T12:46:42;96912.00;;;18.00
8227;BMP180;4154;48.810;9.012;2023-08-31T12:49:07;96912.00;;;18.00
8227;BMP180;4154;48.810;9.012;2023-08-31T12:51:33;96916.00;;;18.00
8227;BMP180;4154;48.810;9.012;2023-08-31T12:53:59;96911.00;;;18.00
8227;BMP180;4154;48.810;9.012;2023-08-31T12:56:24;96900.00;;;17.90
8227;BMP180;4154;48.810;9.012;2023-08-31T12:58:54;96913.00;;;18.00
8227;BMP180;4154;48.810;9.012;2023-08-31T13:01:21;96913.00;;;18.00
8227;BMP180;4154;48.810;9.012;2023-08-31T13:03:47;96908.00;;;18.00
8227;BMP180;4154;48.810;9.012;2023-08-31T13:06:14;96915.00;;;18.10
8227;BMP180;4154;48.810;9.012;2023-08-31T13:08:39;96909.00;;;18.10
8227;BMP180;4154;48.810;9.012;2023-08-31T13:11:05;96922.00;;;18.20
8227;BMP180;4154;48.810;9.012;2023-08-31T13:13:32;96915.00;;;18.30
8227;BMP180;4154;48.810;9.012;2023-08-31T13:15:58;96909.00;;;18.30
8227;BMP180;4154;48.810;9.012;2023-08-31T13:18:24;96913.00;;;18.40
8227;BMP180;4154;48.810;9.012;2023-08-31T13:20:51;96914.00;;;18.50
8227;BMP180;4154;48.810;9.012;2023-08-31T13:23:17;96905.00;;;18.60
8227;BMP180;4154;48.810;9.012;2023-08-31T13:25:43;96907.00;;;18.70
8227;BMP180;4154;48.810;9.012;2023-08-31T13:28:09;96902.00;;;18.80
8227;BMP180;4154;48.810;9.012;2023-08-31T13:30:35;96897.00;;;18.80
8227;BMP180;4154;48.810;9.012;2023-08-31T13:33:00;96901.00;;;18.80
8227;BMP180;4154;48.810;9.012;2023-08-31T13:35:27;96897.00;;;18.70
8227;BMP180;4154;48.810;9.012;2023-08-31T13:37:52;96897.00;;;18.60
8227;BMP180;4154;48.810;9.012;2023-08-31T13:40:18;96904.00;;;18.50
8227;BMP180;4154;48.810;9.012;2023-08-31T13:43:04;96887.00;;;18.50
8227;BMP180;4154;48.810;9.012;2023-08-31T13:45:31;96891.00;;;18.40
8227;BMP180;4154;48.810;9.012;2023-08-31T13:47:58;96891.00;;;18.30
8227;BMP180;4154;48.810;9.012;2023-08-31T13:50:26;96899.00;;;18.20
8227;BMP180;4154;48.810;9.012;2023-08-31T13:52:51;96894.00;;;18.20
8227;BMP180;4154;48.810;9.012;2023-08-31T13:55:17;96895.00;;;18.10
8227;BMP180;4154;48.810;9.012;2023-08-31T13:57:43;96903.00;;;18.10
8227;BMP180;4154;48.810;9.012;2023-08-31T14:00:10;96905.00;;;18.00
8227;BMP180;4154;48.810;9.012;2023-08-31T14:02:37;96903.00;;;17.90
8227;BMP180;4154;48.810;9.012;2023-08-31T14:05:05;96899.00;;;17.80
8227;BMP180;4154;48.810;9.012;2023-08-31T14:07:36;96898.00;;;17.80
8227;BMP180;4154;48.810;9.012;2023-08-31T14:10:03;96907.00;;;17.70
8227;BMP180;4154;48.810;9.012;2023-08-31T14:12:32;96898.00;;;17.70
8227;BMP180;4154;48.810;9.012;2023-08-31T14:14:58;96900.00;;;17.70
8227;BMP180;4154;48.810;9.012;2023-08-31T14:17:26;96900.00;;;17.60
8227;BMP180;4154;48.810;9.012;2023-08-31T14:19:51;96902.00;;;17.60
8227;BMP180;4154;48.810;9.012;2023-08-31T14:22:17;96898.00;;;17.60
8227;BMP180;4154;48.810;9.012;2023-08-31T14:24:43;96897.00;;;17.60
8227;BMP180;4154;48.810;9.012;2023-08-31T14:27:08;96901.00;;;17.60
8227;BMP180;4154;48.810;9.012;2023-08-31T14:29:36;96910.00;;;17.50
8227;BMP180;4154;48.810;9.012;2023-08-31T14:32:02;96906.00;;;17.50
8227;BMP180;4154;48.810;9.012;2023-08-31T14:34:28;96905.00;;;17.50
8227;BMP180;4154;48.810;9.012;2023-08-31T14:36:54;96903.00;;;17.50
8227;BMP180;4154;48.810;9.012;2023-08-31T14:39:23;96921.00;;;17.50
8227;BMP180;4154;48.810;9.012;2023-08-31T14:41:55;96914.00;;;17.50
8227;BMP180;4154;48.810;9.012;2023-08-31T14:44:22;96918.00;;;17.40
8227;BMP180;4154;48.810;9.012;2023-08-31T14:46:47;96921.00;;;17.40
8227;BMP180;4154;48.810;9.012;2023-08-31T14:49:13;96915.00;;;17.40
8227;BMP180;4154;48.810;9.012;2023-08-31T14:51:39;96909.00;;;17.40
8227;BMP180;4154;48.810;9.012;2023-08-31T14:54:05;96902.00;;;17.40